Time;durP1;ratioP1;P1;durP2;ratioP2;P2;SDS_P1;SDS_P2;PMS_P1;PMS_P2;Temp;Humidity;BMP_temperature;BMP_pressure;BME280_temperature;BME280_humidity;BME280_pressure;Samples;Min_cycle;Max_cycle;Signal;HPM_P1;HPM_P2
2022/08/18 00:01:40;;;;;;;31.45;24.35;;;;;;;20.34;83.76;101031.45;1678593;84;21720;-85
2022/08/18 00:04:08;;;;;;;26.27;23.52;;;;;;;20.20;83.84;101012.44;1698156;84;21023;-86
2022/08/18 00:06:35;;;;;;;27.27;24.32;;;;;;;20.31;83.88;101033.72;1668613;84;21032;-86
2022/08/18 00:09:05;;;;;;;28.27;23.65;;;;;;;20.30;83.94;101032.39;1665672;84;21050;-86
2022/08/18 00:11:35;;;;;;;26.45;23.80;;;;;;;20.29;84.01;101036.87;1692126;84;21012;-86
2022/08/18 00:14:02;;;;;;;30.00;23.75;;;;;;;20.30;83.98;101037.74;1678978;84;22574;-86
2022/08/18 00:16:29;;;;;;;26.48;23.92;;;;;;;20.27;84.03;101037.34;1690098;83;21012;-86
2022/08/18 00:18:55;;;;;;;26.52;23.50;;;;;;;20.27;84.03;101037.34;1671729;84;20965;-86
2022/08/18 00:21:22;;;;;;;26.93;23.95;;;;;;;20.24;84.00;101037.36;1652352;85;21129;-87
2022/08/18 00:23:49;;;;;;;27.82;24.87;;;;;;;20.25;83.99;101032.89;1670570;84;21040;-86
2022/08/18 00:26:16;;;;;;;28.20;25.30;;;;;;;20.25;83.99;101032.89;1678111;84;21747;-86
2022/08/18 00:28:43;;;;;;;27.42;24.70;;;;;;;20.23;84.24;101042.25;1671820;84;20996;-86
2022/08/18 00:31:09;;;;;;;29.55;26.37;;;;;;;20.23;84.24;101042.25;1673313;84;21453;-85
2022/08/18 00:33:36;;;;;;;29.57;25.85;;;;;;;20.23;84.19;101040.92;1693975;84;21007;-85
2022/08/18 00:36:04;;;;;;;28.05;25.27;;;;;;;20.24;84.06;101042.70;1670093;84;21559;-85
2022/08/18 00:38:31;;;;;;;27.70;25.00;;;;;;;20.21;84.31;101033.37;1669582;84;21740;-85
2022/08/18 00:40:58;;;;;;;27.02;24.32;;;;;;;20.23;84.37;101041.38;1632309;86;21002;-85
2022/08/18 00:43:38;;;;;;;28.23;25.23;;;;;;;20.23;84.37;101041.38;1632448;85;20984;-85
2022/08/18 00:46:12;;;;;;;28.30;25.40;;;;;;;20.22;84.39;101032.48;1643848;86;20991;-85
2022/08/18 00:48:39;;;;;;;27.37;24.77;;;;;;;20.22;84.39;101032.48;1633912;86;21020;-85
2022/08/18 00:51:25;;;;;;;29.85;26.75;;;;;;;20.22;84.34;101040.95;1656458;85;21781;-85
2022/08/18 00:54:03;;;;;;;28.12;25.23;;;;;;;20.23;84.52;101046.27;1659125;86;21856;-85
2022/08/18 00:56:34;;;;;;;28.95;25.95;;;;;;;20.24;84.48;101047.17;1663546;84;21000;-85
2022/08/18 00:59:22;;;;;;;29.92;26.07;;;;;;;20.23;84.47;101044.05;1658867;86;20992;-85
2022/08/18 01:01:50;;;;;;;28.42;25.72;;;;;;;20.21;84.38;101046.73;1634646;85;21877;-85
2022/08/18 01:04:34;;;;;;;30.00;26.82;;;;;;;20.17;84.38;101043.66;1658704;86;22611;-85
2022/08/18 01:07:05;;;;;;;28.50;25.40;;;;;;;20.15;84.45;101045.00;1655371;86;20987;-86
2022/08/18 01:09:32;;;;;;;28.73;25.68;;;;;;;20.15;84.60;101042.80;1633450;86;20975;-86
2022/08/18 01:11:59;;;;;;;29.25;25.95;;;;;;;20.16;84.83;101046.80;1655415;86;21079;-87
2022/08/18 01:14:25;;;;;;;31.07;26.37;;;;;;;20.21;84.93;101046.73;1631446;86;21023;-87
2022/08/18 01:22:48;;;;;;;28.95;25.72;;;;;;;20.37;85.16;101042.12;1639902;86;21010;-87
2022/08/18 01:28:03;;;;;;;27.90;24.70;;;;;;;20.52;84.98;101037.94;1663687;84;21387;-86
2022/08/18 01:30:30;;;;;;;27.93;24.90;;;;;;;20.66;84.89;101031.58;1687890;82;22553;-86
2022/08/18 01:32:57;;;;;;;27.37;24.47;;;;;;;20.65;84.67;101025.34;1663576;84;21447;-85
2022/08/18 01:35:25;;;;;;;27.52;24.70;;;;;;;20.65;84.67;101025.34;1642915;84;21004;-85
2022/08/18 01:37:53;;;;;;;28.27;25.48;;;;;;;20.82;84.64;101041.19;1686071;84;21055;-86
2022/08/18 01:40:22;;;;;;;26.42;23.75;;;;;;;20.87;84.56;101033.09;1681961;84;21015;-85
2022/08/18 01:42:49;;;;;;;27.85;24.98;;;;;;;20.92;84.43;101036.59;1672429;84;21731;-86
2022/08/18 01:45:16;;;;;;;28.20;25.30;;;;;;;20.97;84.37;101036.09;1672275;84;21020;-85
2022/08/18 01:47:44;;;;;;;31.10;25.08;;;;;;;21.03;84.03;101039.13;1672468;84;21060;-86
2022/08/18 01:50:12;;;;;;;27.95;25.15;;;;;;;21.04;84.20;101036.44;1671848;84;21612;-85
2022/08/18 01:52:38;;;;;;;28.75;25.72;;;;;;;21.08;84.11;101033.27;1697487;84;21071;-85
2022/08/18 01:55:06;;;;;;;26.50;24.00;;;;;;;21.13;84.04;101032.73;1687643;84;21817;-85
2022/08/18 01:57:41;;;;;;;28.87;25.00;;;;;;;21.13;84.04;101032.73;1672380;84;21015;-86
2022/08/18 02:00:06;;;;;;;29.25;25.95;;;;;;;21.15;83.93;101033.16;1680335;84;21023;-86
2022/08/18 02:02:32;;;;;;;27.95;25.02;;;;;;;21.18;83.91;101034.90;1673477;83;21011;-86
2022/08/18 02:05:04;;;;;;;32.53;26.15;;;;;;;21.11;84.00;101003.77;1666622;83;21031;-85
2022/08/18 02:07:31;;;;;;;28.95;25.48;;;;;;;21.11;84.00;101003.77;1700032;83;21821;-85
2022/08/18 02:09:57;;;;;;;31.42;25.08;;;;;;;21.23;83.81;101026.78;1678988;84;21457;-85
2022/08/18 02:12:24;;;;;;;32.00;25.80;;;;;;;21.26;83.94;101021.40;1699848;84;21848;-85
2022/08/18 02:14:51;;;;;;;38.95;25.20;;;;;;;21.29;83.96;101021.36;1699765;84;20980;-85
2022/08/18 02:17:18;;;;;;;38.02;26.12;;;;;;;21.34;83.94;101028.42;1691950;83;20996;-85
2022/08/18 02:19:46;;;;;;;28.67;25.17;;;;;;;21.33;83.84;101013.70;1671680;84;21761;-86
2022/08/18 02:22:17;;;;;;;39.45;25.50;;;;;;;21.38;83.76;101023.91;1696806;84;21091;-86
2022/08/18 02:24:43;;;;;;;43.42;27.27;;;;;;;21.40;83.73;101030.12;1682876;83;21027;-86
2022/08/18 02:27:10;;;;;;;40.28;26.40;;;;;;;21.44;83.72;101035.88;1685785;84;22052;-86
2022/08/18 02:29:37;;;;;;;58.75;30.15;;;;;;;21.45;83.60;101031.41;1671704;84;21069;-85
2022/08/18 02:32:06;;;;;;;57.40;30.27;;;;;;;21.45;83.53;101035.42;1671872;83;21721;-85
2022/08/18 02:34:33;;;;;;;60.48;30.35;;;;;;;21.44;83.46;101030.53;1690433;83;21473;-86
2022/08/18 02:37:00;;;;;;;57.75;32.05;;;;;;;21.42;83.48;101030.98;1677569;85;21564;-86
2022/08/18 02:39:28;;;;;;;53.42;30.55;;;;;;;21.39;83.40;101034.16;1680716;84;21794;-86
2022/08/18 02:41:55;;;;;;;56.92;31.65;;;;;;;21.33;83.39;101032.45;1694679;84;21485;-86
2022/08/18 02:44:22;;;;;;;60.40;32.55;;;;;;;21.26;83.47;101027.63;1693330;84;21757;-86
2022/08/18 02:46:52;;;;;;;64.35;34.98;;;;;;;21.23;83.62;101026.36;1685563;84;21059;-87
2022/08/18 02:49:19;;;;;;;64.92;33.88;;;;;;;21.22;83.73;101025.03;1694392;84;21035;-86
2022/08/18 02:51:45;;;;;;;69.62;33.33;;;;;;;21.20;83.89;101018.82;1680880;84;21020;-87
2022/08/18 02:54:12;;;;;;;67.32;34.40;;;;;;;21.21;84.06;101021.48;1673035;83;21015;-86
2022/08/18 02:56:40;;;;;;;65.22;35.00;;;;;;;21.23;84.29;101024.11;1701021;83;22554;-86
2022/08/18 02:59:09;;;;;;;65.28;33.90;;;;;;;21.24;84.27;101015.19;1706548;83;21441;-87
2022/08/18 03:01:38;;;;;;;75.20;36.03;;;;;;;21.25;84.35;101012.48;1697731;83;20973;-87
2022/08/18 03:04:07;;;;;;;65.10;34.27;;;;;;;21.28;84.28;101016.91;1700566;83;21076;-87
2022/08/18 03:06:35;;;;;;;67.42;34.33;;;;;;;21.27;84.30;101014.69;1697076;83;21024;-88
2022/08/18 03:09:05;;;;;;;71.70;35.48;;;;;;;21.27;84.34;101020.51;1698195;83;21198;-86
2022/08/18 03:11:33;;;;;;;65.12;34.65;;;;;;;21.26;84.41;101024.95;1706059;83;20999;-86
2022/08/18 03:14:00;;;;;;;61.83;33.13;;;;;;;21.26;84.50;101034.32;1698020;84;21031;-86
2022/08/18 03:16:30;;;;;;;69.87;35.30;;;;;;;21.28;84.58;101034.30;1716699;83;20983;-86
2022/08/18 03:18:56;;;;;;;57.80;32.93;;;;;;;21.27;84.48;101032.09;1699552;82;21000;-86
2022/08/18 03:21:24;;;;;;;62.98;34.03;;;;;;;21.21;84.63;101019.23;1709662;83;21750;-86
2022/08/18 03:23:52;;;;;;;61.75;34.58;;;;;;;21.33;84.63;101035.12;1711720;83;21500;-86
2022/08/18 03:26:19;;;;;;;61.00;33.85;;;;;;;21.37;84.58;101043.55;1695399;83;21011;-87
2022/08/18 03:28:48;;;;;;;60.67;33.92;;;;;;;21.26;84.48;101012.91;1692657;83;21523;-86
2022/08/18 03:31:15;;;;;;;58.60;32.95;;;;;;;21.26;84.48;101012.91;1710719;82;21035;-88
2022/08/18 03:33:42;;;;;;;72.03;35.05;;;;;;;21.36;84.36;101030.62;1699844;83;21790;-87
2022/08/18 03:36:12;;;;;;;72.15;36.95;;;;;;;21.34;84.42;101033.77;1684894;83;20958;-87
2022/08/18 03:38:42;;;;;;;63.87;34.13;;;;;;;21.33;84.46;101036.47;1690087;83;21034;-86
2022/08/18 03:41:10;;;;;;;73.95;35.28;;;;;;;21.26;84.51;101024.95;1644966;86;21504;-86
2022/08/18 03:43:37;;;;;;;69.15;34.75;;;;;;;21.34;84.45;101035.55;1688206;85;21523;-86
2022/08/18 03:46:12;;;;;;;69.82;37.40;;;;;;;21.33;84.80;101032.45;1684490;85;21823;-86
2022/08/18 03:48:38;;;;;;;74.53;36.53;;;;;;;21.35;84.67;101041.34;1672637;83;20990;-86
2022/08/18 03:51:16;;;;;;;70.75;35.60;;;;;;;21.36;84.75;101044.00;1674905;85;21051;-86
2022/08/18 03:53:43;;;;;;;70.30;36.85;;;;;;;21.41;84.85;101044.38;1677126;85;20988;-86
2022/08/18 03:56:14;;;;;;;66.62;33.80;;;;;;;21.47;84.87;101041.64;1688932;83;21444;-86
2022/08/18 03:58:46;;;;;;;64.67;34.08;;;;;;;21.50;84.84;101049.63;1660305;83;22518;-86
2022/08/18 04:01:19;;;;;;;66.60;37.03;;;;;;;21.54;84.80;101045.99;1689045;83;20983;-86
2022/08/18 04:03:47;;;;;;;72.42;36.10;;;;;;;21.60;84.84;101053.05;1673956;85;21509;-86
2022/08/18 04:06:17;;;;;;;70.37;37.10;;;;;;;21.64;84.78;101051.66;1671903;85;21149;-86
2022/08/18 04:08:45;;;;;;;68.37;36.63;;;;;;;21.69;84.79;101052.44;1676341;84;21069;-86
2022/08/18 04:11:13;;;;;;;59.20;33.60;;;;;;;21.72;84.66;101048.84;1653202;86;21805;-86
2022/08/18 04:13:46;;;;;;;67.37;36.20;;;;;;;21.76;84.74;101051.02;1683369;84;20977;-86
2022/08/18 04:16:13;;;;;;;66.75;35.10;;;;;;;21.85;84.78;101049.07;1661052;85;21059;-87
2022/08/18 04:18:39;;;;;;;63.13;35.00;;;;;;;21.91;84.71;101050.76;1680862;83;21141;-87
2022/08/18 04:21:09;;;;;;;58.15;32.55;;;;;;;21.98;84.73;101049.75;1649865;85;20979;-87
2022/08/18 04:23:37;;;;;;;51.18;31.23;;;;;;;22.06;84.63;101050.95;1667666;85;21775;-87
2022/08/18 04:26:19;;;;;;;61.08;33.30;;;;;;;22.12;84.40;101050.83;1636037;86;20986;-88
2022/08/18 04:28:48;;;;;;;52.13;31.85;;;;;;;22.21;84.38;101058.70;1654206;86;21039;-89
2022/08/18 04:31:16;;;;;;;58.68;31.70;;;;;;;22.34;84.18;101055.84;1687743;84;21148;-89
2022/08/18 04:33:43;;;;;;;54.63;31.57;;;;;;;22.40;84.02;101047.67;1654536;85;21610;-88
2022/08/18 04:36:12;;;;;;;53.35;31.35;;;;;;;22.49;83.91;101056.89;1654427;86;21868;-87
2022/08/18 04:38:41;;;;;;;47.85;29.75;;;;;;;22.58;83.89;101058.05;1654679;84;20980;-87
2022/08/18 04:41:08;;;;;;;48.25;28.92;;;;;;;22.73;83.81;101056.86;1654389;84;21011;-88
2022/08/18 04:43:35;;;;;;;45.73;29.23;;;;;;;22.87;83.58;101060.13;1651911;86;21010;-87
2022/08/18 04:46:02;;;;;;;47.85;29.45;;;;;;;22.98;83.31;101060.37;1631029;84;21032;-87
2022/08/18 04:48:35;;;;;;;46.25;29.18;;;;;;;23.11;83.17;101064.58;1647483;86;21748;-89
2022/08/18 04:51:19;;;;;;;45.92;28.47;;;;;;;23.26;82.85;101064.23;1655625;86;20983;-89
2022/08/18 04:53:46;;;;;;;47.78;29.45;;;;;;;23.56;83.28;101063.57;1633624;86;20990;-90
2022/08/18 04:56:33;;;;;;;46.15;29.30;;;;;;;24.03;82.93;101062.41;1655115;86;20951;-91
2022/08/18 04:59:11;;;;;;;48.85;28.60;;;;;;;24.36;81.98;101065.14;1647642;86;21026;-89
2022/08/18 05:01:46;;;;;;;44.65;30.05;;;;;;;24.88;82.34;101066.83;1632891;86;21822;-86
2022/08/18 05:04:13;;;;;;;40.98;27.25;;;;;;;25.77;82.44;101071.27;1647747;86;20991;-87
2022/08/18 05:06:42;;;;;;;43.73;28.77;;;;;;;26.83;81.49;101066.72;1651754;86;21007;-88
2022/08/18 05:09:09;;;;;;;43.60;26.27;;;;;;;27.87;80.05;101063.94;1644892;86;21075;-87
2022/08/18 05:11:38;;;;;;;37.70;27.75;;;;;;;28.76;78.00;101061.89;1655635;86;21043;-91
2022/08/18 05:14:07;;;;;;;42.13;27.35;;;;;;;29.36;76.08;101063.64;1655965;86;22549;-87
2022/08/18 05:16:36;;;;;;;40.92;26.77;;;;;;;29.79;74.81;101064.27;1655559;86;21421;-88
2022/08/18 05:19:07;;;;;;;36.95;27.90;;;;;;;30.30;73.63;101067.08;1654977;86;20987;-87
2022/08/18 05:21:35;;;;;;;35.38;26.93;;;;;;;30.83;72.65;101064.69;1644479;85;21473;-86
2022/08/18 05:24:03;;;;;;;39.03;27.48;;;;;;;31.35;70.83;101065.00;1629063;86;21018;-87
2022/08/18 05:26:30;;;;;;;35.68;27.45;;;;;;;31.52;69.29;101062.21;1647964;84;21954;-88
2022/08/18 05:28:57;;;;;;;37.10;27.10;;;;;;;31.49;67.69;101064.23;1642328;86;21535;-86
2022/08/18 05:31:37;;;;;;;;;;;;;;;;;;;;;
2022/08/18 05:33:58;;;;;;;35.95;25.85;;;;;;;30.83;65.66;101059.73;1655812;85;21110;-87
2022/08/18 05:36:45;;;;;;;38.83;25.75;;;;;;;30.32;65.52;101062.44;1674576;84;21461;-87
2022/08/18 05:39:20;;;;;;;29.98;24.35;;;;;;;29.93;65.55;101060.83;1687973;84;21777;-86
2022/08/18 05:42:09;;;;;;;35.00;25.35;;;;;;;29.53;65.61;101058.75;1659838;84;20995;-87
2022/08/18 05:44:47;;;;;;;33.55;24.70;;;;;;;29.32;66.04;101062.01;1650560;86;21007;-87
2022/08/18 05:47:29;;;;;;;33.73;24.90;;;;;;;28.99;65.88;101043.68;1658888;86;21055;-87
2022/08/18 05:49:59;;;;;;;33.10;24.65;;;;;;;28.90;65.71;101055.81;1694962;84;20992;-88
2022/08/18 05:52:39;;;;;;;37.60;24.90;;;;;;;28.63;65.78;101056.16;1700761;83;21767;-89
2022/08/18 05:58:08;;;;;;;31.73;24.30;;;;;;;28.29;65.80;101053.58;1702253;83;21030;-88
2022/08/18 06:00:34;;;;;;;37.78;24.07;;;;;;;28.14;65.76;101047.94;1658555;84;21002;-87
2022/08/18 06:03:18;;;;;;;32.00;23.60;;;;;;;27.98;65.93;101059.44;1654727;85;21035;-87
2022/08/18 06:05:50;;;;;;;28.12;22.67;;;;;;;27.87;66.05;101060.33;1680815;84;21699;-87
2022/08/18 06:08:21;;;;;;;27.82;21.62;;;;;;;27.81;65.93;101060.59;1700436;82;20991;-87
2022/08/18 06:10:54;;;;;;;31.42;20.27;;;;;;;27.76;65.90;101066.22;1702370;82;21552;-90
2022/08/18 06:13:20;;;;;;;26.00;19.48;;;;;;;27.76;65.84;101070.27;1705825;83;21170;-88
2022/08/18 06:16:11;;;;;;;23.40;17.80;;;;;;;27.75;65.70;101066.28;1698395;82;21043;-88
2022/08/18 06:18:55;;;;;;;22.27;16.10;;;;;;;27.73;65.61;101066.33;1703016;84;21900;-88
2022/08/18 06:22:01;;;;;;;21.85;15.30;;;;;;;27.74;65.09;101069.42;1706174;82;20995;-87
2022/08/18 06:24:48;;;;;;;16.12;14.43;;;;;;;27.73;65.02;101073.09;1700224;83;21071;-87
2022/08/18 06:27:29;;;;;;;20.75;15.10;;;;;;;27.84;64.89;101074.88;1692597;83;20996;-87
2022/08/18 06:30:16;;;;;;;22.02;17.52;;;;;;;27.91;64.75;101066.95;1704730;83;21027;-87
2022/08/18 06:33:07;;;;;;;23.10;16.80;;;;;;;27.95;64.44;101073.56;1686951;84;24257;-87
2022/08/18 06:35:49;;;;;;;23.60;17.20;;;;;;;27.90;64.37;101076.00;1709608;82;21067;-87
2022/08/18 06:38:51;;;;;;;30.12;19.45;;;;;;;28.00;64.39;101076.48;1710196;83;21045;-87
2022/08/18 06:41:25;;;;;;;24.75;18.77;;;;;;;28.04;64.31;101078.59;1682002;84;20995;-86
2022/08/18 06:44:12;;;;;;;24.98;18.98;;;;;;;28.10;64.05;101080.57;1708201;84;21015;-86
2022/08/18 06:47:05;;;;;;;28.83;20.70;;;;;;;28.15;64.01;101079.48;1691694;83;21746;-86
2022/08/18 06:49:53;;;;;;;24.45;19.17;;;;;;;28.27;64.13;101073.55;1635356;87;21042;-87
2022/08/18 06:52:28;;;;;;;23.47;20.57;;;;;;;28.38;64.20;101080.73;1622173;88;21040;-86
2022/08/18 06:55:03;;;;;;;20.70;16.87;;;;;;;28.47;63.78;101071.30;1605354;88;21055;-86
2022/08/18 06:57:36;;;;;;;18.62;13.95;;;;;;;28.47;63.49;101074.91;1631237;88;20994;-86
2022/08/18 07:00:11;;;;;;;18.62;13.78;;;;;;;28.56;63.23;101072.75;1619429;85;21839;-86
2022/08/18 07:02:55;;;;;;;19.25;14.60;;;;;;;28.61;62.67;101070.24;1642905;86;21500;-87
2022/08/18 07:05:31;;;;;;;15.90;14.13;;;;;;;28.64;62.49;101080.95;1638091;86;21151;-89
2022/08/18 07:08:15;;;;;;;15.15;13.18;;;;;;;28.66;62.47;101083.11;1615021;88;20995;-90
2022/08/18 07:10:50;;;;;;;18.65;14.03;;;;;;;28.72;62.34;101083.76;1634461;87;21102;-90
2022/08/18 07:13:26;;;;;;;18.02;14.25;;;;;;;28.78;62.04;101072.18;1612547;87;21752;-86
2022/08/18 07:16:16;;;;;;;17.70;14.50;;;;;;;28.77;61.80;101074.47;1606216;87;21266;-86
2022/08/18 07:18:43;;;;;;;13.60;11.93;;;;;;;28.75;61.42;101070.95;1636467;87;21022;-88
2022/08/18 07:21:10;;;;;;;15.45;12.95;;;;;;;28.75;61.58;101074.14;1629115;85;21096;-86
2022/08/18 07:23:38;;;;;;;14.90;12.20;;;;;;;28.80;61.34;101081.59;1586026;86;21058;-86
2022/08/18 07:26:12;;;;;;;13.95;11.12;;;;;;;28.75;60.96;101073.66;1609420;86;21708;-86
2022/08/18 07:28:50;;;;;;;11.78;10.58;;;;;;;28.71;60.78;101076.59;1668864;84;20988;-88
2022/08/18 07:31:42;;;;;;;17.07;11.10;;;;;;;28.80;60.72;101080.24;1654203;85;21000;-87
2022/08/18 07:34:36;;;;;;;12.30;10.70;;;;;;;28.89;60.66;101073.91;1669596;85;21520;-88
2022/08/18 07:37:02;;;;;;;15.65;11.50;;;;;;;28.94;60.20;101072.33;1635480;87;21050;-87
2022/08/18 07:39:39;;;;;;;19.37;11.25;;;;;;;28.93;59.82;101076.02;1648542;85;21760;-87
2022/08/18 07:42:10;;;;;;;12.90;11.60;;;;;;;28.84;59.60;101071.89;1692516;83;21027;-87
2022/08/18 07:44:48;;;;;;;12.07;10.98;;;;;;;28.69;59.40;101081.59;1709925;82;21003;-87
2022/08/18 07:47:25;;;;;;;13.32;10.08;;;;;;;28.61;59.63;101080.20;1708394;82;20967;-87
2022/08/18 07:49:57;;;;;;;17.07;11.57;;;;;;;28.64;59.69;101080.95;1703722;82;21015;-87
2022/08/18 07:52:29;;;;;;;17.70;11.53;;;;;;;28.71;59.63;101077.95;1706319;81;22741;-87
2022/08/18 07:55:04;;;;;;;13.38;10.15;;;;;;;28.69;59.54;101078.89;1687730;82;21060;-91
2022/08/18 07:57:51;;;;;;;11.65;9.45;;;;;;;28.76;59.57;101074.08;1720378;82;20979;-88
2022/08/18 08:00:35;;;;;;;15.15;10.60;;;;;;;28.80;59.66;101078.41;1708810;82;21038;-88
2022/08/18 08:03:24;;;;;;;14.05;9.98;;;;;;;28.84;59.59;101081.37;1711501;82;21079;-87
2022/08/18 08:06:21;;;;;;;12.18;10.53;;;;;;;28.81;59.56;101078.82;1702526;82;42643;-86
2022/08/18 08:09:02;;;;;;;13.95;10.25;;;;;;;28.85;59.40;101079.08;1710357;82;21007;-88
2022/08/18 08:11:55;;;;;;;18.15;12.23;;;;;;;28.87;59.38;101070.40;1708049;82;21042;-88
2022/08/18 08:14:42;;;;;;;16.48;11.15;;;;;;;28.94;59.22;101080.46;1691416;84;21241;-88
2022/08/18 08:17:25;;;;;;;15.50;11.35;;;;;;;28.99;59.00;101080.27;1710474;82;21027;-88
2022/08/18 08:20:12;;;;;;;19.87;12.63;;;;;;;29.03;58.80;101090.87;1710129;82;21807;-88
2022/08/18 08:23:23;;;;;;;12.30;10.70;;;;;;;29.05;58.52;101093.52;1709675;82;21044;-90
2022/08/18 08:26:10;;;;;;;13.68;12.18;;;;;;;29.07;58.49;101089.80;1714377;82;21472;-88
2022/08/18 08:28:57;;;;;;;14.15;12.73;;;;;;;29.15;58.20;101088.12;1700277;82;21180;-88
2022/08/18 08:31:50;;;;;;;14.83;12.73;;;;;;;29.11;57.86;101082.38;1714150;82;20998;-88
2022/08/18 08:34:40;;;;;;;14.65;12.95;;;;;;;29.00;57.67;101082.91;1709205;83;21528;-88
2022/08/18 08:37:17;;;;;;;12.78;11.45;;;;;;;28.97;57.67;101081.69;1702440;83;20992;-89
2022/08/18 08:39:58;;;;;;;19.10;12.73;;;;;;;28.98;57.77;101074.42;1701891;83;21285;-88
2022/08/18 08:42:44;;;;;;;16.27;12.00;;;;;;;28.99;57.66;101081.14;1702493;83;21710;-89
2022/08/18 08:45:30;;;;;;;12.93;11.38;;;;;;;29.05;57.70;101073.19;1709615;83;21003;-89
2022/08/18 08:48:27;;;;;;;14.63;11.20;;;;;;;29.17;57.65;101080.79;1682894;83;21946;-89
2022/08/18 08:51:18;;;;;;;15.08;12.15;;;;;;;29.28;57.72;101076.19;1701572;83;20999;-89
2022/08/18 08:53:55;;;;;;;12.60;10.25;;;;;;;29.40;57.42;101081.03;1696470;83;21563;-89
2022/08/18 08:56:28;;;;;;;13.48;10.60;;;;;;;29.43;57.47;101073.20;1665307;83;21027;-89
2022/08/18 08:58:59;;;;;;;13.00;11.45;;;;;;;29.55;57.46;101071.75;1711692;82;21157;-88
2022/08/18 09:02:08;;;;;;;16.80;11.75;;;;;;;29.64;57.14;101078.08;1706879;82;21761;-88
2022/08/18 09:05:01;;;;;;;17.52;10.88;;;;;;;29.63;56.78;101073.59;1701353;82;21047;-88
2022/08/18 09:08:13;;;;;;;12.63;10.97;;;;;;;29.53;56.63;101073.66;1704167;83;21010;-89
2022/08/18 09:11:26;;;;;;;15.40;10.63;;;;;;;29.55;56.71;101063.13;1665264;84;21044;-89
2022/08/18 09:14:27;;;;;;;16.55;11.38;;;;;;;29.63;56.71;101064.97;1700883;83;21007;-87
2022/08/18 09:17:17;;;;;;;12.60;10.33;;;;;;;29.66;56.45;101070.25;1712681;83;21982;-88
2022/08/18 09:19:59;;;;;;;12.15;10.90;;;;;;;29.66;56.40;101066.67;1690559;83;21904;-87
2022/08/18 09:22:50;;;;;;;11.83;10.48;;;;;;;29.70;56.35;101067.40;1702595;82;20999;-87
2022/08/18 09:25:42;;;;;;;14.07;11.63;;;;;;;29.73;56.41;101064.09;1703951;83;21059;-87
2022/08/18 09:28:19;;;;;;;13.85;11.03;;;;;;;29.82;56.45;101063.59;1701638;82;21516;-87
2022/08/18 09:30:55;;;;;;;15.10;11.53;;;;;;;29.91;56.13;101066.33;1672503;83;22410;-87
2022/08/18 09:33:45;;;;;;;13.20;10.63;;;;;;;30.00;55.86;101060.44;1702884;82;21457;-90
2022/08/18 09:36:37;;;;;;;14.40;11.28;;;;;;;30.08;55.44;101057.32;1684580;83;21014;-89
2022/08/18 09:42:41;;;;;;;18.30;10.60;;;;;;;30.11;55.43;101057.17;1677393;83;21023;-89
2022/08/18 09:45:31;;;;;;;11.05;9.55;;;;;;;30.19;55.02;101054.05;1641712;84;21733;-88
2022/08/18 09:48:17;;;;;;;15.30;9.80;;;;;;;30.18;54.73;101053.19;1634990;84;21479;-89
2022/08/18 09:51:15;;;;;;;16.10;12.58;;;;;;;30.26;54.78;101057.30;1698565;82;21006;-88
2022/08/18 09:54:12;;;;;;;14.63;10.25;;;;;;;30.33;54.63;101058.32;1704531;82;21125;-87
2022/08/18 09:57:15;;;;;;;16.05;11.78;;;;;;;30.47;54.69;101060.29;1717580;82;21034;-89
2022/08/18 09:59:57;;;;;;;17.50;10.60;;;;;;;30.59;54.24;101055.53;1652544;84;21854;-89
2022/08/18 10:02:40;;;;;;;13.00;11.43;;;;;;;30.62;53.91;101051.80;1660655;84;21038;-89
2022/08/18 10:05:21;;;;;;;15.15;10.95;;;;;;;30.61;53.59;101056.36;1642104;86;20983;-87
2022/08/18 10:08:15;;;;;;;11.80;10.15;;;;;;;30.64;53.61;101059.38;1674562;83;21043;-87
2022/08/18 10:10:53;;;;;;;11.45;9.85;;;;;;;30.77;53.66;101053.67;1652926;86;21089;-87
2022/08/18 10:14:01;;;;;;;19.25;10.05;;;;;;;31.01;53.28;101050.60;1685066;83;21874;-88
2022/08/18 10:17:04;;;;;;;12.37;9.93;;;;;;;31.16;53.15;101051.58;1664459;83;21038;-86
2022/08/18 10:19:36;;;;;;;12.30;10.45;;;;;;;31.30;52.86;101046.70;1633002;87;21491;-89
2022/08/18 10:22:42;;;;;;;22.82;11.28;;;;;;;31.49;52.37;101050.63;1670334;84;20976;-87
2022/08/18 10:25:10;;;;;;;22.55;10.32;;;;;;;31.63;52.11;101053.43;1659228;86;20992;-88
2022/08/18 10:27:51;;;;;;;12.70;10.50;;;;;;;31.72;51.69;101053.35;1689406;83;22571;-88
2022/08/18 10:30:38;;;;;;;15.58;9.48;;;;;;;31.71;51.50;101057.92;1672600;84;20999;-87
2022/08/18 10:33:07;;;;;;;16.20;9.88;;;;;;;31.72;51.41;101051.99;1675579;83;21536;-86
2022/08/18 10:35:43;;;;;;;18.17;15.45;;;;;;;31.76;51.22;101049.02;1645248;85;20993;-87
2022/08/18 10:38:28;;;;;;;11.95;9.75;;;;;;;31.75;50.79;101048.61;1653540;84;21518;-86
2022/08/18 10:41:21;;;;;;;14.45;9.68;;;;;;;31.67;50.73;101052.28;1715449;82;22561;-88
2022/08/18 10:44:01;;;;;;;14.97;12.67;;;;;;;31.52;50.61;101047.25;1667229;85;20984;-87
2022/08/18 10:46:35;;;;;;;10.40;9.33;;;;;;;31.37;50.58;101045.39;1669358;86;21555;-87
2022/08/18 10:49:16;;;;;;;13.85;10.35;;;;;;;31.29;50.64;101043.58;1660904;86;21083;-88
2022/08/18 10:52:08;;;;;;;18.30;9.93;;;;;;;31.29;50.89;101041.76;1669755;86;21468;-88
2022/08/18 10:55:08;;;;;;;20.05;10.53;;;;;;;31.33;50.79;101038.38;1669410;86;21744;-88
2022/08/18 10:58:00;;;;;;;15.83;13.20;;;;;;;31.35;50.67;101035.95;1701016;83;21061;-87
2022/08/18 11:00:39;;;;;;;14.75;10.88;;;;;;;31.42;50.48;101029.66;1712766;83;21023;-87
2022/08/18 11:03:35;;;;;;;11.85;10.10;;;;;;;31.51;50.17;101034.59;1680844;83;21540;-87
2022/08/18 11:06:05;;;;;;;14.90;13.25;;;;;;;31.49;49.89;101035.66;1706880;83;21003;-87
2022/08/18 11:08:36;;;;;;;17.60;14.10;;;;;;;31.46;49.79;101037.16;1688416;83;22600;-86
2022/08/18 11:11:08;;;;;;;14.75;10.68;;;;;;;31.52;49.74;101037.73;1670993;84;20976;-86
2022/08/18 11:14:25;;;;;;;14.50;10.63;;;;;;;31.67;49.90;101037.80;1695230;83;21010;-87
2022/08/18 11:17:19;;;;;;;14.13;11.22;;;;;;;31.82;49.58;101039.61;1686940;83;21067;-87
2022/08/18 11:19:47;;;;;;;11.95;9.78;;;;;;;32.03;49.31;101029.79;1712849;83;20984;-87
2022/08/18 11:25:18;;;;;;;12.40;10.15;;;;;;;32.32;48.50;101028.88;1591687;88;21473;-88
2022/08/18 11:27:47;;;;;;;16.12;9.95;;;;;;;32.43;48.11;101022.73;1582952;89;21123;-88
2022/08/18 11:30:21;;;;;;;14.07;10.70;;;;;;;32.51;48.10;101024.52;1591541;90;21609;-88
2022/08/18 11:32:49;;;;;;;13.43;10.08;;;;;;;32.53;47.68;101019.84;1575026;89;21061;-88
2022/08/18 11:35:20;;;;;;;16.12;10.68;;;;;;;32.46;47.53;101017.61;1568829;90;21759;-88
2022/08/18 11:37:59;;;;;;;15.43;10.50;;;;;;;32.42;47.37;101022.86;1571227;90;21035;-88
2022/08/18 11:40:41;;;;;;;11.53;10.18;;;;;;;32.36;47.37;101014.59;1579198;90;21006;-88
2022/08/18 11:43:19;;;;;;;20.85;15.08;;;;;;;32.42;47.28;101007.38;1586986;89;21098;-87
2022/08/18 11:45:57;;;;;;;14.05;10.25;;;;;;;32.37;47.11;101005.92;1607397;89;21089;-87
2022/08/18 11:48:45;;;;;;;12.53;10.08;;;;;;;32.44;47.09;101004.57;1584944;89;21773;-88
2022/08/18 11:51:29;;;;;;;16.82;12.25;;;;;;;32.51;47.19;101001.82;1591874;89;21043;-88
2022/08/18 11:54:00;;;;;;;;;;;;;;;32.61;47.10;100999.45;1587226;90;21099;-86
2022/08/18 11:56:34;;;;;;;11.50;9.78;;;;;;;32.58;46.44;101002.36;1584030;90;20392;-89
2022/08/18 11:59:10;;;;;;;15.48;10.70;;;;;;;32.39;46.52;101003.48;1592145;89;21071;-88
2022/08/18 12:01:49;;;;;;;13.10;9.73;;;;;;;32.22;46.52;101003.17;1584738;90;21775;-87
2022/08/18 12:04:34;;;;;;;13.25;10.00;;;;;;;32.07;46.56;101005.48;1585310;89;21108;-87
2022/08/18 12:07:07;;;;;;;11.75;9.70;;;;;;;31.91;46.61;100994.59;1587875;89;21069;-88
2022/08/18 12:09:45;;;;;;;12.23;9.50;;;;;;;31.88;46.84;100992.95;1654104;84;20970;-87
2022/08/18 12:12:22;;;;;;;15.63;11.38;;;;;;;31.96;46.77;100989.27;1701330;84;20986;-88